Wetterdaten: Woche 21.02.11 - 27.02.11 (KW8)
Datum Zeit Temp. A. Feuchte A. Luftdruck Regen Wind Richtung Taupunkt Windchill Windben
21.02.2011 00:00 -6,1 C 73 % 1020,1 hPa 0,0 l/m 4,8 km/h NW -10,2 C -6,1 C 13,7 km/h
21.02.2011 01:00 -6,6 C 74 % 1020,0 hPa 0,0 l/m 4,5 km/h NW -10,4 C -6,6 C 12,1 km/h
21.02.2011 02:00 -6,7 C 75 % 1020,0 hPa 0,0 l/m 4,8 km/h N-NW -10,3 C -6,7 C 13,7 km/h
21.02.2011 03:00 -6,7 C 74 % 1020,0 hPa 0,0 l/m 5,0 km/h N-NW -10,5 C -6,7 C 13,3 km/h
21.02.2011 04:00 -6,8 C 74 % 1020,0 hPa 0,0 l/m 6,4 km/h N-NW -10,7 C -7,3 C 16,1 km/h
21.02.2011 05:00 -6,9 C 75 % 1020,4 hPa 0,0 l/m 5,8 km/h NW -10,7 C -6,9 C 14,9 km/h
21.02.2011 06:00 -7,3 C 74 % 1020,8 hPa 0,0 l/m 5,6 km/h N-NW -11,1 C -7,4 C 15,3 km/h
21.02.2011 07:00 -7,9 C 73 % 1021,3 hPa 0,0 l/m 6,1 km/h N-NW -11,9 C -8,0 C 16,9 km/h
21.02.2011 08:00 -7,7 C 73 % 1021,8 hPa 0,0 l/m 6,3 km/h NW -11,7 C -8,3 C 16,5 km/h
21.02.2011 09:00 -7,2 C 70 % 1021,8 hPa 0,0 l/m 7,9 km/h N -11,8 C -9,1 C 19,3 km/h
21.02.2011 10:00 -7,1 C 70 % 1021,8 hPa 0,0 l/m 7,3 km/h W -11,7 C -8,5 C 17,7 km/h
21.02.2011 11:00 -5,4 C 68 % 1021,3 hPa 0,0 l/m 6,6 km/h NW -10,5 C -5,8 C 17,3 km/h
21.02.2011 12:00 -4,4 C 64 % 1020,4 hPa 0,0 l/m 7,0 km/h NW -10,1 C -5,2 C 16,9 km/h
21.02.2011 13:00 -4,0 C 64 % 1019,9 hPa 0,0 l/m 7,2 km/h NW -9,8 C -5,0 C 18,1 km/h
21.02.2011 14:00 -3,8 C 64 % 1019,8 hPa 0,0 l/m 6,8 km/h N-NW -9,6 C -4,2 C 17,7 km/h
21.02.2011 15:00 -4,2 C 65 % 1019,6 hPa 0,0 l/m 5,8 km/h N-NW -9,7 C -4,2 C 13,7 km/h
21.02.2011 16:00 -4,3 C 66 % 1019,8 hPa 0,0 l/m 5,7 km/h NW -9,7 C -4,4 C 13,3 km/h
21.02.2011 17:00 -4,6 C 67 % 1019,9 hPa 0,0 l/m 4,2 km/h NW -9,8 C -4,6 C 10,1 km/h
21.02.2011 18:00 -4,7 C 68 % 1020,0 hPa 0,0 l/m 3,2 km/h NW -9,7 C -4,7 C 8,9 km/h
21.02.2011 19:00 -4,6 C 68 % 1019,9 hPa 0,0 l/m 3,7 km/h NW -9,7 C -4,6 C 9,3 km/h
21.02.2011 20:00 -4,6 C 68 % 1019,5 hPa 0,0 l/m 4,0 km/h W-NW -9,5 C -4,6 C 8,9 km/h
21.02.2011 21:00 -4,7 C 68 % 1019,4 hPa 0,0 l/m 2,1 km/h N-NO -9,6 C -4,7 C 7,2 km/h
21.02.2011 22:00 -5,3 C 67 % 1019,2 hPa 0,0 l/m 3,6 km/h NO -10,4 C -5,3 C 10,9 km/h
21.02.2011 23:00 -6,5 C 70 % 1019,3 hPa 0,0 l/m 5,3 km/h N-NW -11,1 C -6,5 C 12,9 km/h
22.02.2011 00:00 -7,3 C 72 % 1019,0 hPa 0,0 l/m 4,4 km/h NW -11,5 C -7,3 C 12,1 km/h
22.02.2011 01:00 -7,7 C 74 % 1018,9 hPa 0,0 l/m 3,1 km/h N-NW -11,6 C -7,7 C 8,9 km/h
22.02.2011 02:00 -8,1 C 75 % 1018,8 hPa 0,0 l/m 2,5 km/h NW -11,8 C -8,1 C 7,2 km/h
22.02.2011 03:00 -8,2 C 75 % 1018,5 hPa 0,0 l/m 3,0 km/h NW -11,8 C -8,2 C 10,1 km/h
22.02.2011 04:00 -8,2 C 75 % 1018,5 hPa 0,0 l/m 3,8 km/h NW -11,8 C -8,2 C 11,3 km/h
22.02.2011 05:00 -8,2 C 76 % 1018,4 hPa 0,0 l/m 3,5 km/h NW -11,7 C -8,2 C 9,3 km/h
22.02.2011 06:00 -8,3 C 76 % 1018,1 hPa 0,0 l/m 4,1 km/h W-NW -11,8 C -8,3 C 11,3 km/h
22.02.2011 07:00 -8,3 C 76 % 1018,3 hPa 0,0 l/m 3,4 km/h NW -11,7 C -8,3 C 8,4 km/h
22.02.2011 08:00 -8,0 C 75 % 1018,2 hPa 0,0 l/m 4,3 km/h NW -11,6 C -8,0 C 10,5 km/h
22.02.2011 09:00 -7,6 C 73 % 1018,1 hPa 0,0 l/m 4,7 km/h NW -11,5 C -7,6 C 12,1 km/h
22.02.2011 10:00 -6,7 C 71 % 1018,3 hPa 0,0 l/m 5,8 km/h NW -11,1 C -6,7 C 14,9 km/h
22.02.2011 11:00 -5,9 C 68 % 1018,2 hPa 0,0 l/m 5,9 km/h NW -10,9 C -5,9 C 14,5 km/h
22.02.2011 12:00 -4,7 C 65 % 1017,5 hPa 0,0 l/m 5,0 km/h N-NO -10,2 C -4,7 C 14,1 km/h
22.02.2011 13:00 -4,1 C 63 % 1017,5 hPa 0,0 l/m 5,6 km/h NO -10,1 C -4,1 C 15,7 km/h
22.02.2011 14:00 -3,8 C 63 % 1017,5 hPa 0,0 l/m 5,4 km/h N-NW -9,8 C -3,8 C 16,1 km/h
22.02.2011 15:00 -3,4 C 62 % 1017,7 hPa 0,0 l/m 5,8 km/h NW -9,5 C -3,4 C 14,5 km/h
22.02.2011 16:00 -3,5 C 63 % 1018,2 hPa 0,0 l/m 6,7 km/h NW -9,6 C -4,3 C 16,5 km/h
22.02.2011 17:00 -4,2 C 65 % 1018,8 hPa 0,0 l/m 4,8 km/h N-NW -9,7 C -4,3 C 11,3 km/h
22.02.2011 18:00 -4,6 C 68 % 1019,7 hPa 0,0 l/m 1,3 km/h N-NW -9,7 C -4,6 C 5,2 km/h
22.02.2011 19:00 -4,9 C 68 % 1020,2 hPa 0,0 l/m 0,5 km/h N-NW -9,9 C -4,9 C 3,2 km/h
22.02.2011 20:00 -5,0 C 68 % 1020,8 hPa 0,0 l/m 3,6 km/h NO -9,9 C -5,0 C 10,1 km/h
22.02.2011 21:00 -6,0 C 68 % 1021,7 hPa 0,0 l/m 4,4 km/h N-NO -11,0 C -6,0 C 13,3 km/h
22.02.2011 22:00 -6,1 C 68 % 1022,2 hPa 0,0 l/m 4,9 km/h NW -11,1 C -6,2 C 12,5 km/h
22.02.2011 23:00 -6,5 C 68 % 1022,7 hPa 0,0 l/m 6,4 km/h N-NW -11,5 C -7,0 C 16,9 km/h
23.02.2011 00:00 -6,9 C 69 % 1023,1 hPa 0,0 l/m 4,9 km/h NW -11,6 C -6,9 C 14,9 km/h
23.02.2011 01:00 -7,2 C 70 % 1023,3 hPa 0,0 l/m 2,4 km/h NW -11,7 C -7,2 C 8,0 km/h
23.02.2011 02:00 -6,9 C 70 % 1023,1 hPa 0,0 l/m 3,2 km/h NO -11,4 C -6,9 C 9,3 km/h
23.02.2011 03:00 -6,8 C 70 % 1023,2 hPa 0,0 l/m 4,8 km/h N-NO -11,5 C -6,8 C 12,9 km/h
23.02.2011 04:00 -7,0 C 68 % 1023,6 hPa 0,0 l/m 4,1 km/h NW -11,8 C -7,0 C 11,3 km/h
23.02.2011 05:00 -7,3 C 71 % 1024,2 hPa 0,0 l/m 5,0 km/h NW -11,7 C -7,3 C 14,1 km/h
23.02.2011 06:00 -7,8 C 71 % 1024,8 hPa 0,0 l/m 5,2 km/h N-NW -12,1 C -7,8 C 13,7 km/h
23.02.2011 07:00 -8,1 C 73 % 1025,6 hPa 0,0 l/m 6,8 km/h NW -12,0 C -8,8 C 18,5 km/h
23.02.2011 08:00 -7,7 C 71 % 1026,2 hPa 0,0 l/m 8,6 km/h NW -12,0 C -10,5 C 21,7 km/h
23.02.2011 09:00 -6,7 C 67 % 1026,5 hPa 0,0 l/m 8,6 km/h NO -11,9 C -9,4 C 19,7 km/h
23.02.2011 10:00 -5,8 C 63 % 1026,9 hPa 0,0 l/m 11,3 km/h NW -11,6 C -10,9 C 27,4 km/h
23.02.2011 11:00 -5,0 C 61 % 1027,1 hPa 0,0 l/m 14,0 km/h N-NW -11,3 C -12,2 C 27,0 km/h
23.02.2011 12:00 -3,9 C 59 % 1026,7 hPa 0,0 l/m 11,6 km/h N-NW -10,7 C -9,1 C 24,9 km/h
23.02.2011 13:00 -3,4 C 58 % 1026,6 hPa 0,0 l/m 11,4 km/h N -10,4 C -8,3 C 26,1 km/h
23.02.2011 14:00 -2,8 C 57 % 1026,4 hPa 0,0 l/m 10,4 km/h NW -10,1 C -6,9 C 23,7 km/h
23.02.2011 15:00 -2,7 C 57 % 1026,5 hPa 0,0 l/m 9,0 km/h N-NW -10,1 C -5,5 C 22,1 km/h
23.02.2011 16:00 -3,2 C 58 % 1026,8 hPa 0,0 l/m 9,3 km/h N-NW -10,3 C -6,3 C 22,1 km/h
23.02.2011 17:00 -3,8 C 59 % 1027,2 hPa 0,0 l/m 6,9 km/h N-NW -10,6 C -4,4 C 19,3 km/h
23.02.2011 18:00 -4,4 C 61 % 1028,1 hPa 0,0 l/m 5,4 km/h N-NW -10,7 C -4,4 C 16,9 km/h
23.02.2011 19:00 -4,9 C 63 % 1028,6 hPa 0,0 l/m 5,5 km/h NW -10,9 C -4,9 C 14,9 km/h
23.02.2011 20:00 -5,4 C 64 % 1029,1 hPa 0,0 l/m 6,1 km/h W-NW -11,1 C -5,6 C 15,3 km/h
23.02.2011 21:00 -5,9 C 66 % 1029,5 hPa 0,0 l/m 4,9 km/h NW -11,2 C -5,9 C 12,5 km/h
23.02.2011 22:00 -6,6 C 68 % 1029,6 hPa 0,0 l/m 4,8 km/h NW -11,4 C -6,6 C 12,5 km/h
23.02.2011 23:00 -7,2 C 70 % 1029,9 hPa 0,0 l/m 3,4 km/h N-NW -11,7 C -7,2 C 10,4 km/h
24.02.2011 00:00 -8,0 C 72 % 1030,2 hPa 0,0 l/m 2,5 km/h NW -12,0 C -8,0 C 6,8 km/h
24.02.2011 01:00 -8,3 C 73 % 1029,9 hPa 0,0 l/m 3,7 km/h W-NW -12,2 C -8,3 C 11,3 km/h
24.02.2011 02:00 -8,7 C 73 % 1029,9 hPa 0,0 l/m 3,7 km/h N-NW -12,7 C -8,7 C 12,1 km/h
24.02.2011 03:00 -9,3 C 74 % 1029,8 hPa 0,0 l/m 4,2 km/h N-NW -13,0 C -9,3 C 10,5 km/h
24.02.2011 04:00 -9,8 C 75 % 1030,1 hPa 0,0 l/m 2,2 km/h N-NW -13,3 C -9,8 C 6,4 km/h
24.02.2011 05:00 -10,1 C 76 % 1030,3 hPa 0,0 l/m 1,0 km/h NW -13,5 C -10,1 C 4,4 km/h
24.02.2011 06:00 -10,0 C 77 % 1030,8 hPa 0,0 l/m 1,9 km/h NW -13,2 C -10,0 C 6,8 km/h
24.02.2011 07:00 -10,0 C 78 % 1031,5 hPa 0,0 l/m 0,6 km/h NW -13,2 C -10,0 C 3,6 km/h
24.02.2011 08:00 -8,6 C 77 % 1031,6 hPa 0,0 l/m 3,9 km/h NW -11,9 C -8,6 C 9,6 km/h
24.02.2011 09:00 -6,7 C 71 % 1031,5 hPa 0,0 l/m 5,1 km/h NW -11,0 C -6,7 C 11,3 km/h
24.02.2011 10:00 -4,5 C 63 % 1031,1 hPa 0,0 l/m 4,7 km/h NW -10,4 C -4,5 C 12,1 km/h
24.02.2011 11:00 -2,4 C 52 % 1030,8 hPa 0,0 l/m 6,8 km/h NW -10,9 C -3,2 C 16,5 km/h
24.02.2011 12:00 -1,3 C 46 % 1030,3 hPa 0,0 l/m 7,6 km/h N-NW -11,3 C -2,6 C 17,7 km/h
24.02.2011 13:00 -0,5 C 44 % 1029,7 hPa 0,0 l/m 6,8 km/h NO -11,3 C -0,9 C 17,3 km/h
24.02.2011 14:00 0,1 C 43 % 1029,4 hPa 0,0 l/m 6,3 km/h N-NO -11,0 C -0,2 C 15,3 km/h
24.02.2011 15:00 0,4 C 40 % 1029,1 hPa 0,0 l/m 6,8 km/h NO -11,6 C -0,3 C 16,5 km/h
24.02.2011 16:00 -0,1 C 43 % 1029,2 hPa 0,0 l/m 5,4 km/h NW -11,3 C -0,1 C 12,5 km/h
24.02.2011 17:00 -0,8 C 46 % 1029,7 hPa 0,0 l/m 1,8 km/h N-NW -10,9 C -0,8 C 7,3 km/h
24.02.2011 18:00 -2,4 C 51 % 1030,2 hPa 0,0 l/m 0,0 km/h N -11,3 C -2,4 C 1,2 km/h
24.02.2011 19:00 -4,1 C 57 % 1030,5 hPa 0,0 l/m 0,1 km/h N -11,4 C -4,1 C 1,6 km/h
24.02.2011 20:00 -4,8 C 61 % 1030,6 hPa 0,0 l/m 0,1 km/h N -11,1 C -4,8 C 1,6 km/h
24.02.2011 21:00 -5,3 C 63 % 1030,8 hPa 0,0 l/m 0,1 km/h N -11,2 C -5,3 C 2,0 km/h
24.02.2011 22:00 -5,5 C 65 % 1031,0 hPa 0,0 l/m 0,3 km/h N-NW -11,0 C -5,5 C 2,4 km/h
24.02.2011 23:00 -5,4 C 65 % 1031,3 hPa 0,0 l/m 2,2 km/h NW -10,8 C -5,4 C 6,0 km/h
25.02.2011 00:00 -5,7 C 66 % 1031,2 hPa 0,0 l/m 2,1 km/h N-NW -11,1 C -5,7 C 6,0 km/h
25.02.2011 01:00 -6,1 C 68 % 1031,2 hPa 0,0 l/m 3,6 km/h N-NW -11,1 C -6,1 C 10,1 km/h
25.02.2011 02:00 -6,4 C 70 % 1031,2 hPa 0,0 l/m 4,4 km/h NW -11,0 C -6,4 C 9,6 km/h
25.02.2011 03:00 -6,9 C 72 % 1030,9 hPa 0,0 l/m 5,7 km/h N-NW -11,1 C -7,3 C 15,3 km/h
25.02.2011 04:00 -7,1 C 73 % 1030,9 hPa 0,0 l/m 5,7 km/h NW -11,1 C -7,2 C 14,5 km/h
25.02.2011 05:00 -7,3 C 74 % 1031,1 hPa 0,0 l/m 6,4 km/h NW -11,1 C -7,8 C 16,1 km/h
25.02.2011 06:00 -7,2 C 74 % 1031,4 hPa 0,0 l/m 7,0 km/h NW -11,1 C -8,0 C 18,5 km/h
25.02.2011 07:00 -7,2 C 74 % 1031,8 hPa 0,0 l/m 7,1 km/h NW -11,0 C -8,7 C 18,9 km/h
25.02.2011 08:00 -6,2 C 72 % 1032,3 hPa 0,0 l/m 9,5 km/h N-NW -10,3 C -9,7 C 21,7 km/h
25.02.2011 09:00 -4,5 C 67 % 1031,9 hPa 0,0 l/m 11,8 km/h NW -9,7 C -9,9 C 23,3 km/h
25.02.2011 10:00 -3,2 C 62 % 1031,5 hPa 0,0 l/m 11,5 km/h N-NW -9,3 C -8,2 C 24,9 km/h
25.02.2011 11:00 -2,0 C 60 % 1031,2 hPa 0,0 l/m 11,7 km/h N-NW -8,8 C -7,1 C 25,4 km/h
25.02.2011 12:00 -0,7 C 56 % 1030,6 hPa 0,0 l/m 11,6 km/h N-NW -8,4 C -5,5 C 25,7 km/h
25.02.2011 13:00 0,4 C 52 % 1030,0 hPa 0,0 l/m 12,6 km/h NW -8,2 C -4,9 C 26,1 km/h
25.02.2011 14:00 0,9 C 51 % 1029,8 hPa 0,0 l/m 12,5 km/h N-NO -8,1 C -4,3 C 26,5 km/h
25.02.2011 15:00 1,1 C 52 % 1029,8 hPa 0,0 l/m 10,4 km/h O-NO -7,8 C -2,5 C 22,9 km/h
25.02.2011 16:00 0,6 C 52 % 1029,8 hPa 0,0 l/m 8,2 km/h N-NO -8,2 C -1,2 C 22,9 km/h
25.02.2011 17:00 0,3 C 53 % 1030,2 hPa 0,0 l/m 5,4 km/h N -8,1 C 0,3 C 14,5 km/h
25.02.2011 18:00 -1,0 C 57 % 1031,0 hPa 0,0 l/m 5,0 km/h NO -8,5 C -1,0 C 13,7 km/h
25.02.2011 19:00 -2,1 C 60 % 1031,6 hPa 0,0 l/m 4,8 km/h N -8,8 C -2,1 C 15,7 km/h
25.02.2011 20:00 -2,8 C 62 % 1031,9 hPa 0,0 l/m 5,1 km/h NO -9,0 C -2,8 C 13,3 km/h
25.02.2011 21:00 -3,7 C 65 % 1032,1 hPa 0,0 l/m 4,7 km/h N-NW -9,2 C -3,7 C 15,3 km/h
25.02.2011 22:00 -4,3 C 68 % 1032,2 hPa 0,0 l/m 3,0 km/h NW -9,4 C -4,3 C 8,0 km/h
25.02.2011 23:00 -4,8 C 70 % 1032,2 hPa 0,0 l/m 2,2 km/h W-NW -9,5 C -4,8 C 6,8 km/h
26.02.2011 00:00 -5,1 C 71 % 1032,1 hPa 0,0 l/m 2,4 km/h NW -9,5 C -5,1 C 6,4 km/h
26.02.2011 01:00 -5,3 C 73 % 1031,8 hPa 0,0 l/m 2,4 km/h N-NW -9,4 C -5,3 C 6,8 km/h
26.02.2011 02:00 -5,8 C 73 % 1031,5 hPa 0,0 l/m 0,1 km/h N -9,8 C -5,8 C 1,2 km/h
26.02.2011 03:00 -6,5 C 75 % 1030,9 hPa 0,0 l/m 0,1 km/h N -10,2 C -6,5 C 1,6 km/h
26.02.2011 04:00 -6,7 C 77 % 1030,6 hPa 0,0 l/m 0,1 km/h N -10,1 C -6,7 C 1,6 km/h
26.02.2011 05:00 -7,0 C 77 % 1030,2 hPa 0,0 l/m 0,3 km/h N -10,3 C -7,0 C 2,4 km/h
26.02.2011 06:00 -7,2 C 78 % 1029,8 hPa 0,0 l/m 0,1 km/h N -10,4 C -7,2 C 1,6 km/h
26.02.2011 07:00 -7,4 C 79 % 1030,0 hPa 0,0 l/m 0,0 km/h N -10,5 C -7,4 C 0,8 km/h
26.02.2011 08:00 -5,8 C 81 % 1029,5 hPa 0,0 l/m 0,3 km/h N -8,5 C -5,8 C 4,0 km/h
26.02.2011 09:00 -3,9 C 76 % 1028,9 hPa 0,0 l/m 0,7 km/h N -7,4 C -3,9 C 4,0 km/h
26.02.2011 10:00 -2,6 C 69 % 1028,0 hPa 0,0 l/m 1,0 km/h NO -7,6 C -2,6 C 4,8 km/h
26.02.2011 11:00 -1,1 C 64 % 1027,1 hPa 0,0 l/m 1,0 km/h O -7,0 C -1,1 C 4,8 km/h
26.02.2011 12:00 0,4 C 60 % 1025,9 hPa 0,0 l/m 2,1 km/h O -6,4 C 0,4 C 6,8 km/h
26.02.2011 13:00 1,4 C 57 % 1024,4 hPa 0,0 l/m 2,4 km/h O-SO -6,2 C 1,4 C 7,6 km/h
26.02.2011 14:00 2,5 C 53 % 1023,5 hPa 0,0 l/m 2,7 km/h O-SO -6,3 C 2,5 C 11,7 km/h
26.02.2011 15:00 2,8 C 52 % 1022,6 hPa 0,0 l/m 2,4 km/h O-SO -6,1 C 2,8 C 10,5 km/h
26.02.2011 16:00 2,1 C 53 % 1021,8 hPa 0,0 l/m 2,7 km/h O-SO -6,5 C 2,1 C 8,9 km/h
26.02.2011 17:00 1,3 C 56 % 1021,2 hPa 0,0 l/m 0,6 km/h N -6,6 C 1,3 C 4,0 km/h
26.02.2011 18:00 -0,2 C 60 % 1020,4 hPa 0,0 l/m 0,4 km/h SO -6,9 C -0,2 C 2,8 km/h
26.02.2011 19:00 -0,5 C 63 % 1019,8 hPa 0,0 l/m 0,3 km/h N -6,6 C -0,5 C 2,4 km/h
26.02.2011 20:00 -1,8 C 67 % 1019,3 hPa 0,0 l/m 0,3 km/h N -7,1 C -1,8 C 2,4 km/h
26.02.2011 21:00 -1,8 C 70 % 1018,8 hPa 0,0 l/m 1,0 km/h O-SO -6,5 C -1,8 C 4,4 km/h
26.02.2011 22:00 -1,7 C 72 % 1018,2 hPa 0,0 l/m 1,8 km/h O-SO -6,0 C -1,7 C 4,4 km/h
26.02.2011 23:00 -1,3 C 71 % 1017,5 hPa 0,0 l/m 1,2 km/h N -5,9 C -1,3 C 5,2 km/h
27.02.2011 00:00 -1,9 C 71 % 1017,3 hPa 0,0 l/m 0,7 km/h O-SO -6,5 C -1,9 C 5,6 km/h
27.02.2011 01:00 -2,6 C 73 % 1017,2 hPa 0,0 l/m 0,2 km/h N -6,8 C -2,6 C 3,6 km/h
27.02.2011 02:00 -2,9 C 75 % 1016,8 hPa 0,0 l/m 0,2 km/h N -6,7 C -2,9 C 4,0 km/h
27.02.2011 03:00 -3,4 C 77 % 1016,5 hPa 0,0 l/m 0,3 km/h N -6,9 C -3,4 C 3,6 km/h
27.02.2011 04:00 -3,8 C 77 % 1016,5 hPa 0,0 l/m 0,1 km/h N -7,2 C -3,8 C 0,8 km/h
27.02.2011 05:00 -5,2 C 78 % 1016,7 hPa 0,0 l/m 0,0 km/h N -8,5 C -5,2 C 0,0 km/h
27.02.2011 06:00 -6,2 C 80 % 1016,8 hPa 0,0 l/m 0,0 km/h N -9,1 C -6,2 C 0,0 km/h
27.02.2011 07:00 -5,3 C 83 % 1017,2 hPa 0,0 l/m 0,1 km/h N -7,7 C -5,3 C 2,4 km/h
27.02.2011 08:00 -2,7 C 83 % 1017,6 hPa 0,0 l/m 2,2 km/h O -5,1 C -2,7 C 5,6 km/h
27.02.2011 09:00 -0,8 C 78 % 1017,7 hPa 0,0 l/m 2,1 km/h O -4,2 C -0,8 C 6,8 km/h
27.02.2011 10:00 0,8 C 72 % 1017,8 hPa 0,0 l/m 2,8 km/h O -3,6 C 0,8 C 9,7 km/h
27.02.2011 11:00 2,4 C 67 % 1017,8 hPa 0,0 l/m 3,7 km/h O-SO -3,1 C 2,4 C 11,3 km/h
27.02.2011 12:00 3,5 C 64 % 1017,6 hPa 0,0 l/m 4,0 km/h O -2,8 C 3,5 C 11,3 km/h
27.02.2011 13:00 3,7 C 62 % 1017,6 hPa 0,0 l/m 6,4 km/h O -2,9 C 3,4 C 16,1 km/h
27.02.2011 14:00 3,6 C 62 % 1017,8 hPa 0,0 l/m 5,4 km/h O-SO -3,0 C 3,6 C 14,1 km/h
27.02.2011 15:00 3,3 C 63 % 1018,0 hPa 0,0 l/m 3,2 km/h SO -3,2 C 3,3 C 9,7 km/h
27.02.2011 16:00 2,5 C 64 % 1018,5 hPa 0,0 l/m 2,0 km/h O -3,7 C 2,5 C 7,7 km/h
27.02.2011 17:00 0,9 C 68 % 1019,4 hPa 0,0 l/m 1,7 km/h S-SO -4,4 C 0,9 C 6,0 km/h
27.02.2011 18:00 -0,7 C 73 % 1020,2 hPa 0,0 l/m 0,9 km/h O-SO -5,0 C -0,7 C 5,2 km/h
27.02.2011 19:00 -2,0 C 77 % 1020,7 hPa 0,0 l/m 0,7 km/h N -5,4 C -2,0 C 3,2 km/h
27.02.2011 20:00 -3,1 C 80 % 1021,1 hPa 0,0 l/m 0,1 km/h N -6,1 C -3,1 C 2,0 km/h
27.02.2011 21:00 -3,8 C 81 % 1021,3 hPa 0,0 l/m 0,0 km/h N -6,6 C -3,8 C 0,4 km/h
27.02.2011 22:00 -4,4 C 82 % 1021,6 hPa 0,0 l/m 0,0 km/h N -7,0 C -4,4 C 0,0 km/h
27.02.2011 23:00 -5,1 C 83 % 1021,9 hPa 0,0 l/m 0,0 km/h N -7,5 C -5,1 C 0,0 km/h
Min-Datum _ 24.02.11 24.02.11 27.02.11 - 24.02.11 - 24.02.11 23.02.11 24.02.11
_ Min-Zeit 06:45 15:45 03:45 - 18:00 - 05:15 11:15 18:15
Minimum _ -10,2 C 39 % 1016,4 hPa - 0,0 km/h - -13,5 C -14,5 C 0,0 km/h
Max-Datum _ 27.02.11 27.02.11 25.02.11 21.02.11 23.02.11 - 27.02.11 27.02.11 23.02.11
_ Max-Zeit 12:45 07:30 08:00 00:00 11:15 - 12:30 12:45 10:45
Maximum _ 3,8 C 84 % 1032,3 hPa 0,0 l/m 16,8 km/h
N-NW
- -2,6 C 3,8 C 30,6 km/h
N
Durchschnitt _ -4,4 C 67 % 1024,4 hPa #0,0 l/m 4,2 km/h NW -9,6 C -4,9 C 11,3 km/h